createdAt,value
2018-11-26T00:00:17.066Z,124.05
2018-11-26T00:02:45.759Z,131.72
2018-11-26T00:05:14.330Z,140.73
2018-11-26T00:07:42.897Z,127.47
2018-11-26T00:10:22.616Z,128.62
2018-11-26T00:12:51.198Z,138.85
2018-11-26T00:15:19.776Z,141.77
2018-11-26T00:17:48.389Z,125.70
2018-11-26T00:20:17.021Z,135.32
2018-11-26T00:22:45.536Z,136.60
2018-11-26T00:25:14.150Z,136.03
2018-11-26T00:27:42.721Z,130.15
2018-11-26T00:30:11.347Z,133.18
2018-11-26T00:32:39.910Z,131.87
2018-11-26T00:35:08.585Z,126.20
2018-11-26T00:37:37.199Z,143.37
2018-11-26T00:40:08.535Z,138.90
2018-11-26T00:42:37.121Z,152.87
2018-11-26T00:45:06.679Z,152.07
2018-11-26T00:47:35.236Z,173.40
2018-11-26T00:50:03.877Z,171.37
2018-11-26T00:52:35.601Z,169.25
2018-11-26T00:55:07.186Z,174.25
2018-11-26T00:57:35.909Z,170.53
2018-11-26T01:00:05.595Z,183.82
2018-11-26T01:02:34.141Z,181.60
2018-11-26T01:05:02.702Z,203.88
2018-11-26T01:07:31.275Z,196.10
2018-11-26T01:09:59.854Z,197.40
2018-11-26T01:12:28.428Z,221.95
2018-11-26T01:14:56.978Z,198.70
2018-11-26T01:17:25.634Z,218.95
2018-11-26T01:19:54.264Z,228.67
2018-11-26T01:22:22.849Z,228.30
2018-11-26T01:24:51.422Z,226.15
2018-11-26T01:27:19.993Z,207.43
2018-11-26T01:29:48.559Z,212.90
2018-11-26T01:32:17.141Z,225.85
2018-11-26T01:34:45.713Z,211.35
2018-11-26T01:37:14.284Z,218.80
2018-11-26T01:39:43.706Z,226.82
2018-11-26T01:42:12.288Z,202.28
2018-11-26T01:44:40.871Z,205.03
2018-11-26T01:47:09.456Z,217.93
2018-11-26T01:49:38.013Z,205.20
2018-11-26T01:52:06.735Z,193.60
2018-11-26T01:54:35.314Z,183.00
2018-11-26T01:57:03.928Z,192.43
2018-11-26T01:59:32.490Z,196.35
2018-11-26T02:02:01.069Z,206.50
2018-11-26T02:04:29.623Z,204.63
2018-11-26T02:06:58.183Z,198.00
2018-11-26T02:09:26.789Z,215.50
2018-11-26T02:11:55.356Z,219.10
2018-11-26T02:14:23.957Z,216.10
2018-11-26T02:16:52.534Z,211.72
2018-11-26T02:19:21.100Z,220.10
2018-11-26T02:21:49.683Z,226.80
2018-11-26T02:24:18.239Z,225.72
2018-11-26T02:26:46.814Z,224.62
2018-11-26T02:29:15.363Z,261.43
2018-11-26T02:31:43.941Z,222.25
2018-11-26T02:34:12.515Z,230.27
2018-11-26T02:36:41.125Z,219.97
2018-11-26T02:39:09.717Z,219.70
2018-11-26T02:41:38.351Z,230.60
2018-11-26T02:44:07.008Z,218.15
2018-11-26T02:46:35.588Z,234.60
2018-11-26T02:49:04.173Z,214.02
2018-11-26T02:51:32.749Z,222.45
2018-11-26T02:54:01.360Z,243.30
2018-11-26T02:56:29.977Z,243.12
2018-11-26T02:58:58.548Z,226.88
2018-11-26T03:01:27.165Z,232.92
2018-11-26T03:03:55.714Z,231.97
2018-11-26T03:06:24.263Z,229.50
2018-11-26T03:08:53.013Z,234.57
2018-11-26T03:11:21.608Z,229.85
2018-11-26T03:13:50.198Z,277.43
2018-11-26T03:16:18.773Z,281.32
2018-11-26T03:18:47.361Z,272.75
2018-11-26T03:21:15.961Z,288.23
2018-11-26T03:23:44.531Z,242.82
2018-11-26T03:26:13.159Z,261.10
2018-11-26T03:28:41.729Z,256.20
2018-11-26T03:31:10.329Z,286.05
2018-11-26T03:33:38.926Z,296.98
2018-11-26T03:36:07.508Z,324.58
2018-11-26T03:38:45.960Z,327.00
2018-11-26T03:41:14.592Z,283.50
2018-11-26T03:43:43.221Z,316.38
2018-11-26T03:46:11.806Z,336.02
2018-11-26T03:48:40.376Z,305.20
2018-11-26T03:51:08.918Z,304.15
2018-11-26T03:53:37.496Z,305.25
2018-11-26T03:56:06.809Z,302.20
2018-11-26T03:58:35.420Z,336.48
2018-11-26T04:01:04.005Z,324.60
2018-11-26T04:03:32.541Z,313.37
2018-11-26T04:06:01.197Z,287.33
2018-11-26T04:08:29.753Z,328.00
2018-11-26T04:10:58.394Z,314.80
2018-11-26T04:13:26.957Z,295.52
2018-11-26T04:15:55.606Z,319.52
2018-11-26T04:18:24.196Z,302.73
2018-11-26T04:20:52.774Z,308.85
2018-11-26T04:23:21.348Z,333.75
2018-11-26T04:25:49.948Z,376.82
2018-11-26T04:28:18.503Z,335.08
2018-11-26T04:30:47.097Z,324.50
2018-11-26T04:33:15.695Z,325.73
2018-11-26T04:35:44.251Z,315.40
2018-11-26T04:38:12.821Z,309.92
2018-11-26T04:40:41.391Z,320.33
2018-11-26T04:43:09.986Z,344.57
2018-11-26T04:45:38.569Z,355.48
2018-11-26T04:48:07.201Z,341.73
2018-11-26T04:50:35.821Z,308.63
2018-11-26T04:53:04.618Z,301.32
2018-11-26T04:55:33.200Z,343.57
2018-11-26T04:58:01.858Z,404.15
2018-11-26T05:00:30.432Z,331.17
2018-11-26T05:03:00.054Z,353.62
2018-11-26T05:05:29.029Z,314.60
2018-11-26T05:07:57.715Z,342.70
2018-11-26T05:10:26.313Z,360.63
2018-11-26T05:12:54.924Z,343.35
2018-11-26T05:15:23.589Z,336.52
2018-11-26T05:17:52.162Z,400.80
2018-11-26T05:20:20.762Z,332.98
2018-11-26T05:22:49.310Z,368.20
2018-11-26T05:25:17.915Z,271.60
2018-11-26T05:27:46.523Z,326.92
2018-11-26T05:30:15.126Z,358.07
2018-11-26T05:32:43.744Z,333.55
2018-11-26T05:35:12.866Z,291.32
2018-11-26T05:37:41.438Z,298.27
2018-11-26T05:40:12.345Z,305.92
2018-11-26T05:42:41.589Z,279.30
2018-11-26T05:45:17.024Z,251.25
2018-11-26T05:47:45.672Z,279.05
2018-11-26T05:50:15.765Z,277.18
2018-11-26T05:52:44.355Z,214.27
2018-11-26T05:55:14.039Z,210.93
2018-11-26T05:57:42.665Z,218.48
2018-11-26T06:00:16.650Z,242.05
2018-11-26T06:02:45.260Z,250.82
2018-11-26T06:05:13.882Z,265.75
2018-11-26T06:07:42.572Z,296.15
2018-11-26T06:10:11.263Z,284.18
2018-11-26T06:12:39.848Z,318.57
2018-11-26T06:15:11.852Z,370.33
2018-11-26T06:17:40.552Z,266.73
2018-11-26T06:20:10.893Z,282.73
2018-11-26T06:22:39.735Z,316.57
2018-11-26T06:25:10.595Z,291.10
2018-11-26T06:27:39.183Z,320.55
2018-11-26T06:30:10.851Z,269.60
2018-11-26T06:32:39.436Z,319.27
2018-11-26T06:35:11.651Z,274.70
2018-11-26T06:37:40.424Z,306.30
2018-11-26T06:40:09.985Z,285.65
2018-11-26T06:42:38.601Z,320.50
2018-11-26T06:45:12.765Z,437.00
2018-11-26T06:47:41.838Z,303.77
2018-11-26T06:50:14.111Z,255.72
2018-11-26T06:52:42.807Z,272.58
2018-11-26T06:55:13.777Z,261.20
2018-11-26T06:57:42.417Z,266.35
2018-11-26T07:00:16.459Z,276.00
2018-11-26T07:02:45.085Z,282.25
2018-11-26T07:05:17.012Z,331.17
2018-11-26T07:07:45.622Z,324.18
2018-11-26T07:10:14.819Z,326.98
2018-11-26T07:12:43.433Z,290.95
2018-11-26T07:15:13.425Z,248.55
2018-11-26T07:17:42.161Z,216.88
2018-11-26T07:20:14.057Z,224.50
2018-11-26T07:22:42.620Z,226.88
2018-11-26T07:25:13.021Z,246.55
2018-11-26T07:27:41.838Z,183.35
2018-11-26T07:30:15.473Z,210.43
2018-11-26T07:32:44.324Z,183.52
2018-11-26T07:35:16.799Z,187.07
2018-11-26T07:37:45.403Z,178.65
2018-11-26T07:40:15.480Z,171.18
2018-11-26T07:42:47.840Z,173.15
2018-11-26T07:45:16.696Z,202.20
2018-11-26T07:47:45.275Z,202.93
2018-11-26T07:50:15.016Z,209.25
2018-11-26T07:52:43.586Z,184.13
2018-11-26T07:55:13.645Z,211.52
2018-11-26T07:57:42.311Z,162.68
2018-11-26T08:00:13.154Z,190.47
2018-11-26T08:02:41.957Z,187.20
2018-11-26T08:05:15.750Z,154.15
2018-11-26T08:07:44.353Z,151.65
2018-11-26T08:10:15.108Z,149.80
2018-11-26T08:12:44.105Z,159.63
2018-11-26T08:15:15.824Z,146.10
2018-11-26T08:17:44.396Z,144.62
2018-11-26T08:20:13.112Z,130.75
2018-11-26T08:22:41.718Z,128.80
2018-11-26T08:25:15.602Z,150.10
2018-11-26T08:27:45.086Z,119.28
2018-11-26T08:30:17.825Z,126.60
2018-11-26T08:32:47.558Z,131.27
2018-11-26T08:35:17.016Z,110.22
2018-11-26T08:37:50.977Z,114.90
2018-11-26T08:40:22.465Z,110.30
2018-11-26T08:43:06.527Z,116.00
2018-11-26T08:45:37.056Z,112.45
2018-11-26T08:48:11.654Z,124.95
2018-11-26T08:50:40.256Z,130.60
2018-11-26T08:53:08.817Z,122.78
2018-11-26T08:55:37.413Z,119.37
2018-11-26T08:58:06.405Z,129.60
2018-11-26T09:00:35.148Z,101.30
2018-11-26T09:03:05.821Z,141.53
2018-11-26T09:05:40.730Z,128.25
2018-11-26T09:08:09.275Z,116.15
2018-11-26T09:10:37.832Z,140.57
2018-11-26T09:13:06.466Z,124.38
2018-11-26T09:15:35.054Z,124.85
2018-11-26T09:18:03.716Z,123.22
2018-11-26T09:20:32.309Z,121.30
2018-11-26T09:23:00.950Z,113.35
2018-11-26T09:25:29.561Z,103.55
2018-11-26T09:27:58.131Z,103.02
2018-11-26T09:30:26.736Z,115.70
2018-11-26T09:32:55.325Z,115.60
2018-11-26T09:35:23.921Z,98.45
2018-11-26T09:37:52.484Z,107.87
2018-11-26T09:40:21.058Z,105.83
2018-11-26T09:42:49.643Z,96.50
2018-11-26T09:45:18.708Z,114.80
2018-11-26T09:47:47.295Z,114.42
2018-11-26T09:50:18.065Z,114.70
2018-11-26T09:52:46.657Z,115.70
2018-11-26T09:55:16.197Z,106.90
2018-11-26T09:57:44.823Z,108.22
2018-11-26T10:00:18.723Z,107.70
2018-11-26T10:02:48.371Z,124.40
2018-11-26T10:05:18.365Z,116.62
2018-11-26T10:07:46.986Z,103.30
2018-11-26T10:10:15.585Z,108.17
2018-11-26T10:12:44.790Z,83.80
2018-11-26T10:15:20.560Z,94.47
2018-11-26T10:17:49.202Z,87.92
2018-11-26T10:20:17.836Z,87.35
2018-11-26T10:22:46.812Z,85.60
2018-11-26T10:25:17.699Z,91.28
2018-11-26T10:27:46.334Z,81.55
2018-11-26T10:30:16.016Z,92.05
2018-11-26T10:32:45.272Z,83.82
2018-11-26T10:35:15.071Z,84.42
2018-11-26T10:37:44.365Z,89.62
2018-11-26T10:40:14.931Z,86.00
2018-11-26T10:42:43.534Z,89.52
2018-11-26T10:45:13.462Z,103.17
2018-11-26T10:47:42.101Z,91.87
2018-11-26T10:50:18.584Z,91.10
2018-11-26T10:52:52.272Z,81.40
2018-11-26T10:55:22.616Z,95.77
2018-11-26T10:57:51.329Z,84.00
2018-11-26T11:00:25.196Z,95.83
2018-11-26T11:02:53.776Z,101.58
2018-11-26T11:05:22.371Z,99.25
2018-11-26T11:07:51.000Z,106.12
2018-11-26T11:10:22.897Z,94.32
2018-11-26T11:12:51.574Z,109.17
2018-11-26T11:15:20.206Z,117.57
2018-11-26T11:17:48.813Z,90.77
2018-11-26T11:20:20.519Z,117.65
2018-11-26T11:22:49.169Z,104.95
2018-11-26T11:25:20.868Z,125.10
2018-11-26T11:27:49.680Z,115.67
2018-11-26T11:30:19.543Z,132.67
2018-11-26T11:32:48.193Z,120.92
2018-11-26T11:35:17.757Z,128.27
2018-11-26T11:37:47.145Z,108.52
2018-11-26T11:40:18.158Z,105.07
2018-11-26T11:42:46.866Z,100.40
2018-11-26T11:45:20.917Z,86.57
2018-11-26T11:47:49.709Z,90.10
2018-11-26T11:50:20.232Z,87.72
2018-11-26T11:52:49.125Z,94.65
2018-11-26T11:55:20.956Z,102.00
2018-11-26T11:57:49.664Z,113.83
2018-11-26T12:00:33.713Z,93.25
2018-11-26T12:03:03.554Z,97.42
2018-11-26T12:05:32.159Z,94.32
2018-11-26T12:08:00.796Z,113.32
2018-11-26T12:10:31.146Z,111.50
2018-11-26T12:12:59.741Z,103.00
2018-11-26T12:15:28.317Z,100.78
2018-11-26T12:17:56.895Z,94.40
2018-11-26T12:20:25.526Z,96.63
2018-11-26T12:22:54.187Z,90.65
2018-11-26T12:25:23.170Z,95.15
2018-11-26T12:27:55.213Z,135.07
2018-11-26T12:30:25.857Z,92.57
2018-11-26T12:32:54.527Z,105.72
2018-11-26T12:35:23.297Z,115.70
2018-11-26T12:37:52.030Z,122.95
2018-11-26T12:40:21.759Z,112.03
2018-11-26T12:42:51.619Z,106.80
2018-11-26T12:45:25.139Z,113.05
2018-11-26T12:47:53.731Z,106.72
2018-11-26T12:50:22.288Z,92.45
2018-11-26T12:52:50.895Z,88.80
2018-11-26T12:55:20.567Z,88.90
2018-11-26T12:57:49.904Z,104.10
2018-11-26T13:00:19.612Z,92.33
2018-11-26T13:02:50.434Z,80.57
2018-11-26T13:05:20.112Z,93.60
2018-11-26T13:07:48.708Z,89.80
2018-11-26T13:10:19.616Z,84.80
2018-11-26T13:12:48.845Z,82.57
2018-11-26T13:15:24.825Z,70.60
2018-11-26T13:17:53.428Z,84.25
2018-11-26T13:20:23.588Z,79.58
2018-11-26T13:22:52.575Z,78.00
2018-11-26T13:25:23.405Z,80.35
2018-11-26T13:27:53.198Z,75.35
2018-11-26T13:30:23.144Z,88.10
2018-11-26T13:32:54.103Z,74.97
2018-11-26T13:35:22.633Z,80.32
2018-11-26T13:37:51.253Z,73.50
2018-11-26T13:40:20.373Z,87.55
2018-11-26T13:42:49.235Z,77.37
2018-11-26T13:45:19.044Z,65.42
2018-11-26T13:47:47.609Z,93.03
2018-11-26T13:50:23.052Z,89.52
2018-11-26T13:52:51.257Z,92.78
2018-11-26T13:55:22.305Z,85.47
2018-11-26T13:57:50.917Z,84.87
2018-11-26T14:00:19.502Z,95.72
2018-11-26T14:02:48.058Z,81.02
2018-11-26T14:05:17.837Z,88.82
2018-11-26T14:07:46.750Z,84.72
2018-11-26T14:10:22.008Z,100.42
2018-11-26T14:12:57.127Z,97.35
2018-11-26T14:15:25.727Z,103.55
2018-11-26T14:17:54.260Z,89.07
2018-11-26T14:20:22.866Z,102.97
2018-11-26T14:22:51.466Z,97.62
2018-11-26T14:25:20.184Z,116.28
2018-11-26T14:27:50.306Z,94.70
2018-11-26T14:30:21.419Z,117.10
2018-11-26T14:32:50.031Z,101.33
2018-11-26T14:35:18.619Z,108.72
2018-11-26T14:37:48.683Z,143.95
2018-11-26T14:40:19.077Z,132.40
2018-11-26T14:42:47.709Z,136.68
2018-11-26T14:45:16.299Z,117.13
2018-11-26T14:47:45.198Z,111.92
2018-11-26T14:50:15.741Z,114.88
2018-11-26T14:52:45.404Z,116.88
2018-11-26T14:55:34.048Z,107.65
2018-11-26T14:58:02.745Z,104.83
2018-11-26T15:00:31.362Z,104.80
2018-11-26T15:03:00.033Z,117.85
2018-11-26T15:05:28.628Z,112.32
2018-11-26T15:07:57.247Z,119.33
2018-11-26T15:10:26.345Z,111.03
2018-11-26T15:12:54.917Z,120.02
2018-11-26T15:15:25.256Z,115.45
2018-11-26T15:17:53.827Z,98.60
2018-11-26T15:20:24.974Z,120.92
2018-11-26T15:22:54.605Z,113.75
2018-11-26T15:25:24.271Z,101.45
2018-11-26T15:27:54.241Z,112.08
2018-11-26T15:30:23.380Z,104.23
2018-11-26T15:32:51.973Z,98.45
2018-11-26T15:35:21.927Z,89.67
2018-11-26T15:37:50.545Z,86.30
2018-11-26T15:40:20.848Z,85.38
2018-11-26T15:42:49.534Z,74.40
2018-11-26T15:45:20.120Z,73.65
2018-11-26T15:47:49.304Z,65.10
2018-11-26T15:50:17.908Z,53.80
2018-11-26T15:52:46.514Z,70.52
2018-11-26T15:55:16.466Z,60.55
2018-11-26T15:57:45.073Z,60.05
2018-11-26T16:00:16.721Z,55.55
2018-11-26T16:02:45.499Z,56.53
2018-11-26T16:05:15.909Z,68.05
2018-11-26T16:07:44.679Z,75.87
2018-11-26T16:10:16.885Z,80.72
2018-11-26T16:12:50.477Z,77.55
2018-11-26T16:15:21.446Z,86.53
2018-11-26T16:17:50.337Z,74.27
2018-11-26T16:20:23.820Z,81.15
2018-11-26T16:22:52.438Z,77.65
2018-11-26T16:25:22.208Z,70.80
2018-11-26T16:27:50.886Z,77.67
2018-11-26T16:30:19.795Z,75.55
2018-11-26T16:32:51.063Z,75.25
2018-11-26T16:35:21.249Z,71.70
2018-11-26T16:37:49.884Z,66.82
2018-11-26T16:40:18.635Z,64.65
2018-11-26T16:42:47.242Z,66.55
2018-11-26T16:45:18.732Z,89.22
2018-11-26T16:47:48.773Z,71.82
2018-11-26T16:50:18.219Z,77.90
2018-11-26T16:52:46.792Z,62.03
2018-11-26T16:55:16.030Z,66.47
2018-11-26T16:57:44.684Z,68.47
2018-11-26T17:00:20.960Z,68.35
2018-11-26T17:02:50.903Z,66.12
2018-11-26T17:05:22.428Z,65.67
2018-11-26T17:07:49.834Z,71.67
2018-11-26T17:10:18.447Z,70.80
2018-11-26T17:12:47.014Z,68.70
2018-11-26T17:15:17.000Z,69.50
2018-11-26T17:17:45.598Z,74.70
2018-11-26T17:20:15.180Z,78.42
2018-11-26T17:22:43.872Z,77.15
2018-11-26T17:25:13.446Z,78.02
2018-11-26T17:27:42.949Z,70.22
2018-11-26T17:30:18.855Z,64.15
2018-11-26T17:32:48.685Z,69.87
2018-11-26T17:35:17.927Z,76.05
2018-11-26T17:37:46.537Z,68.28
2018-11-26T17:40:16.705Z,55.43
2018-11-26T17:42:45.365Z,64.58
2018-11-26T17:45:14.623Z,72.55
2018-11-26T17:47:44.680Z,55.17
2018-11-26T17:50:15.823Z,55.90
2018-11-26T17:52:44.370Z,61.77
2018-11-26T17:55:12.967Z,63.92
2018-11-26T17:57:41.541Z,57.43
2018-11-26T18:00:11.775Z,63.50
2018-11-26T18:02:40.550Z,61.98
2018-11-26T18:05:19.670Z,57.25
2018-11-26T18:07:50.359Z,61.30
2018-11-26T18:10:18.937Z,67.72
2018-11-26T18:12:47.512Z,69.45
2018-11-26T18:15:16.287Z,67.95
2018-11-26T18:17:45.837Z,64.58
2018-11-26T18:20:16.625Z,67.00
2018-11-26T18:22:46.271Z,73.95
2018-11-26T18:25:15.426Z,85.85
2018-11-26T18:27:47.261Z,82.20
2018-11-26T18:30:20.416Z,91.97
2018-11-26T18:32:48.975Z,88.85
2018-11-26T18:35:18.399Z,80.15
2018-11-26T18:37:47.066Z,90.95
2018-11-26T18:40:16.644Z,85.32
2018-11-26T18:42:45.200Z,90.97
2018-11-26T18:45:16.392Z,81.75
2018-11-26T18:47:45.641Z,94.00
2018-11-26T18:50:16.378Z,79.72
2018-11-26T18:52:45.527Z,77.53
2018-11-26T18:55:14.243Z,85.75
2018-11-26T18:57:43.155Z,85.07
2018-11-26T19:00:14.157Z,89.62
2018-11-26T19:02:42.741Z,85.20
2018-11-26T19:05:12.150Z,85.72
2018-11-26T19:07:40.727Z,86.92
2018-11-26T19:10:12.067Z,86.97
2018-11-26T19:12:40.861Z,84.60
2018-11-26T19:15:11.810Z,96.10
2018-11-26T19:17:40.433Z,92.45
2018-11-26T19:20:10.822Z,98.22
2018-11-26T19:22:39.658Z,102.40
2018-11-26T19:25:13.769Z,98.42
2018-11-26T19:27:42.992Z,115.28
2018-11-26T19:30:12.827Z,105.90
2018-11-26T19:32:41.881Z,119.15
2018-11-26T19:35:11.715Z,112.40
2018-11-26T19:37:40.283Z,111.12
2018-11-26T19:40:14.166Z,112.28
2018-11-26T19:42:45.208Z,95.92
2018-11-26T19:45:16.867Z,108.12
2018-11-26T19:47:45.638Z,99.83
2018-11-26T19:50:17.304Z,106.17
2018-11-26T19:52:47.125Z,96.30
2018-11-26T19:55:25.684Z,82.67
2018-11-26T19:57:55.680Z,96.87
2018-11-26T20:00:26.316Z,98.33
2018-11-26T20:03:15.145Z,98.27
2018-11-26T20:06:06.477Z,90.60
2018-11-26T20:08:35.054Z,105.52
2018-11-26T20:11:03.624Z,97.78
2018-11-26T20:13:32.204Z,100.47
2018-11-26T20:16:00.923Z,92.00
2018-11-26T20:18:29.503Z,98.72
2018-11-26T20:20:58.115Z,97.95
2018-11-26T20:23:26.845Z,93.15
2018-11-26T20:25:55.402Z,98.82
2018-11-26T20:28:24.015Z,97.42
2018-11-26T20:30:52.791Z,97.82
2018-11-26T20:33:21.375Z,100.92
2018-11-26T20:35:49.972Z,82.20
2018-11-26T20:38:18.584Z,97.00
2018-11-26T20:40:47.206Z,88.00
2018-11-26T20:43:16.028Z,89.97
2018-11-26T20:45:46.639Z,90.30
2018-11-26T20:48:15.250Z,92.42
2018-11-26T20:50:46.868Z,94.95
2018-11-26T20:53:15.441Z,100.92
2018-11-26T20:55:44.037Z,92.75
2018-11-26T20:58:12.644Z,103.53
2018-11-26T21:00:42.046Z,97.88
2018-11-26T21:03:11.371Z,89.40
2018-11-26T21:05:40.904Z,96.57
2018-11-26T21:08:09.502Z,115.30
2018-11-26T21:10:38.174Z,101.20
2018-11-26T21:13:07.029Z,107.50
2018-11-26T21:15:35.652Z,113.30
2018-11-26T21:18:08.887Z,105.72
2018-11-26T21:20:43.923Z,112.25
2018-11-26T21:23:15.477Z,118.22
2018-11-26T21:25:44.121Z,106.00
2018-11-26T21:28:12.736Z,120.80
2018-11-26T21:30:41.353Z,111.40
2018-11-26T21:33:09.937Z,121.25
2018-11-26T21:35:38.591Z,107.95
2018-11-26T21:38:08.867Z,115.42
2018-11-26T21:40:38.166Z,111.70
2018-11-26T21:43:07.298Z,110.85
2018-11-26T21:45:55.331Z,113.83
2018-11-26T21:48:23.949Z,118.77
2018-11-26T21:50:52.583Z,114.85
2018-11-26T21:53:21.195Z,92.15
2018-11-26T21:55:49.801Z,87.42
2018-11-26T21:58:18.432Z,113.60
2018-11-26T22:00:47.963Z,133.93
2018-11-26T22:03:16.569Z,119.70
2018-11-26T22:05:45.569Z,123.58
2018-11-26T22:08:14.236Z,115.82
2018-11-26T22:10:43.803Z,118.00
2018-11-26T22:13:13.829Z,117.97
2018-11-26T22:15:42.491Z,98.30
2018-11-26T22:18:11.148Z,110.15
2018-11-26T22:20:39.779Z,116.93
2018-11-26T22:23:08.804Z,114.45
2018-11-26T22:25:37.606Z,121.02
2018-11-26T22:28:08.333Z,112.20
2018-11-26T22:30:37.485Z,111.68
2018-11-26T22:33:06.389Z,107.90
2018-11-26T22:35:35.028Z,113.17
2018-11-26T22:38:03.662Z,115.45
2018-11-26T22:40:32.381Z,105.10
2018-11-26T22:43:00.962Z,110.88
2018-11-26T22:45:32.074Z,107.47
2018-11-26T22:48:09.855Z,116.08
2018-11-26T22:50:39.743Z,105.05
2018-11-26T22:53:09.171Z,93.37
2018-11-26T22:55:37.819Z,86.78
2018-11-26T22:58:08.159Z,90.72
2018-11-26T23:01:08.726Z,83.03
2018-11-26T23:03:37.329Z,85.53
2018-11-26T23:06:06.169Z,76.28
2018-11-26T23:08:34.799Z,86.97
2018-11-26T23:11:03.354Z,76.02
2018-11-26T23:13:31.946Z,83.75
2018-11-26T23:16:00.488Z,81.30
2018-11-26T23:18:29.158Z,71.60
2018-11-26T23:20:57.749Z,74.17
2018-11-26T23:23:26.315Z,78.40
2018-11-26T23:25:54.909Z,81.57
2018-11-26T23:28:23.462Z,71.37
2018-11-26T23:30:52.083Z,78.92
2018-11-26T23:33:20.649Z,82.05
2018-11-26T23:35:49.228Z,71.35
2018-11-26T23:38:17.811Z,74.77
2018-11-26T23:40:46.391Z,79.70
2018-11-26T23:43:14.986Z,72.27
2018-11-26T23:45:43.556Z,82.10
2018-11-26T23:48:12.133Z,75.78
2018-11-26T23:50:40.700Z,73.15
2018-11-26T23:53:09.332Z,70.85
2018-11-26T23:55:37.894Z,74.85
2018-11-26T23:58:06.539Z,69.37
